Time;durP1;ratioP1;P1;durP2;ratioP2;P2;SDS_P1;SDS_P2;PMS_P1;PMS_P2;Temp;Humidity;BMP_temperature;BMP_pressure;BME280_temperature;BME280_humidity;BME280_pressure;Samples;Min_cycle;Max_cycle;Signal;HPM_P1;HPM_P2
2022/05/29 00:01:58;;;;;;;7.00;2.70;;;;;;;14.89;53.70;98853.75;5184829;28;20049;-72
2022/05/29 00:04:48;;;;;;;4.40;2.75;;;;;;;14.90;54.02;98860.75;5184988;28;20189;-73
2022/05/29 00:07:40;;;;;;;6.75;2.80;;;;;;;14.71;54.26;98870.03;5185418;28;20056;-72
2022/05/29 00:10:35;;;;;;;8.43;2.70;;;;;;;14.71;54.94;98856.69;5185351;28;20061;-71
2022/05/29 00:13:25;;;;;;;4.93;2.42;;;;;;;14.74;53.20;98854.50;5184513;28;20060;-74
2022/05/29 00:16:15;;;;;;;4.97;2.55;;;;;;;14.81;52.47;98849.31;5185371;28;20127;-73
2022/05/29 00:19:05;;;;;;;3.75;2.22;;;;;;;14.57;55.09;98847.59;5183899;28;20408;-72
2022/05/29 00:21:56;;;;;;;6.97;2.30;;;;;;;14.60;53.97;98852.56;5180749;28;20420;-77
2022/05/29 00:24:48;;;;;;;8.30;2.30;;;;;;;14.62;53.83;98849.72;5183220;28;20104;-72
2022/05/29 00:27:39;;;;;;;8.45;2.67;;;;;;;14.45;52.82;98852.41;5182986;28;20658;-72
2022/05/29 00:30:29;;;;;;;4.50;2.03;;;;;;;14.47;52.99;98849.56;5183448;28;20060;-72
2022/05/29 00:33:19;;;;;;;6.68;2.65;;;;;;;14.34;54.19;98837.63;5182900;28;20054;-74
2022/05/29 00:36:11;;;;;;;5.03;2.00;;;;;;;14.38;55.22;98847.94;5183099;28;20094;-72
2022/05/29 00:39:01;;;;;;;5.03;2.30;;;;;;;14.31;54.31;98839.81;5183488;28;20117;-74
2022/05/29 00:41:52;;;;;;;8.25;2.10;;;;;;;14.38;53.97;98843.44;5169106;28;20050;-72
2022/05/29 00:44:42;;;;;;;6.35;1.70;;;;;;;14.46;51.66;98848.75;5182770;28;20045;-73
2022/05/29 00:47:32;;;;;;;5.18;2.05;;;;;;;14.60;51.42;98841.03;5182647;28;20053;-73
2022/05/29 00:50:24;;;;;;;7.72;2.20;;;;;;;14.53;51.24;98836.41;5181903;28;20493;-73
2022/05/29 00:53:15;;;;;;;5.35;2.05;;;;;;;14.46;51.40;98823.91;5180649;28;20061;-75
2022/05/29 00:56:08;;;;;;;6.15;1.98;;;;;;;14.57;50.90;98840.41;5182861;28;20065;-73
2022/05/29 00:58:59;;;;;;;6.05;2.10;;;;;;;14.51;52.22;98841.09;5181634;28;20160;-73
2022/05/29 01:01:52;;;;;;;4.53;2.00;;;;;;;14.59;51.44;98832.22;5178301;28;20053;-76
2022/05/29 01:04:44;;;;;;;9.60;2.70;;;;;;;14.60;51.42;98833.88;5181309;28;20057;-72
2022/05/29 01:07:36;;;;;;;6.72;2.10;;;;;;;14.61;51.74;98832.88;5167359;28;20578;-75
2022/05/29 01:10:40;;;;;;;4.82;2.25;;;;;;;14.61;52.85;98832.06;5182273;28;20097;-73
2022/05/29 01:13:46;;;;;;;6.75;2.28;;;;;;;14.55;52.37;98830.91;5180777;28;20053;-72
2022/05/29 01:16:45;;;;;;;9.25;2.40;;;;;;;14.67;53.18;98828.66;5182229;28;20586;-72
2022/05/29 01:19:59;;;;;;;6.18;2.20;;;;;;;14.64;53.09;98821.03;5181931;28;20717;-72
2022/05/29 01:23:07;;;;;;;7.53;1.95;;;;;;;14.64;52.30;98819.19;5182147;28;20061;-72
2022/05/29 01:26:01;;;;;;;8.18;2.40;;;;;;;14.70;50.92;98813.16;5172500;28;20061;-74
2022/05/29 01:29:04;;;;;;;2.10;1.90;;;;;;;14.51;51.14;98814.41;5181458;28;20089;-72
2022/05/29 01:31:59;;;;;;;5.43;1.77;;;;;;;14.42;52.31;98806.59;5168327;28;20203;-73
2022/05/29 01:34:58;;;;;;;4.97;2.03;;;;;;;14.12;53.62;98773.53;5181610;28;20143;-71
2022/05/29 01:37:53;;;;;;;9.52;1.90;;;;;;;14.25;54.00;98803.16;5168115;28;20091;-72
2022/05/29 01:40:55;;;;;;;7.88;1.80;;;;;;;14.08;53.21;98797.88;5181485;28;20045;-72
2022/05/29 01:43:58;;;;;;;6.63;1.85;;;;;;;14.16;54.03;98801.50;5166678;28;20057;-72
2022/05/29 01:46:57;;;;;;;4.30;1.70;;;;;;;14.09;54.51;98786.19;5181108;28;20052;-73
2022/05/29 01:49:56;;;;;;;9.00;2.38;;;;;;;14.10;54.25;98787.00;5167315;28;20056;-73
2022/05/29 01:52:54;;;;;;;7.57;1.92;;;;;;;14.07;55.47;98782.03;5181038;28;20535;-71
2022/05/29 01:55:50;;;;;;;3.60;1.85;;;;;;;13.95;55.78;98783.41;5180082;28;20076;-74
2022/05/29 01:58:48;;;;;;;11.68;2.70;;;;;;;13.92;57.85;98783.75;5180268;28;20053;-73
2022/05/29 02:01:45;;;;;;;4.05;2.28;;;;;;;13.92;58.60;98781.09;5167535;28;20099;-72
2022/05/29 02:04:40;;;;;;;8.00;2.20;;;;;;;13.85;57.80;98760.44;5180979;28;20174;-73
2022/05/29 02:07:48;;;;;;;7.05;2.08;;;;;;;13.75;58.50;98757.13;5166826;28;20519;-71
2022/05/29 02:10:43;;;;;;;4.50;1.80;;;;;;;13.66;55.50;98773.31;5181067;28;20520;-71
2022/05/29 02:13:42;;;;;;;4.55;2.00;;;;;;;13.48;55.80;98760.19;5165375;28;20547;-71
2022/05/29 02:16:37;;;;;;;5.88;1.92;;;;;;;13.71;56.15;98750.50;5182802;28;20618;-72
2022/05/29 02:19:46;;;;;;;4.00;2.05;;;;;;;13.64;56.60;98760.13;5167149;28;20073;-72
2022/05/29 02:22:38;;;;;;;3.45;1.90;;;;;;;13.52;56.40;98759.66;5174793;28;20145;-72
2022/05/29 02:25:30;;;;;;;11.63;2.08;;;;;;;13.44;55.72;98756.16;5166897;28;20475;-73
2022/05/29 02:28:34;;;;;;;5.25;1.75;;;;;;;13.35;54.97;98753.53;5182673;28;20058;-72
2022/05/29 02:31:40;;;;;;;5.88;2.22;;;;;;;13.44;54.81;98758.84;5181618;28;20095;-71
2022/05/29 02:34:49;;;;;;;12.20;2.63;;;;;;;13.45;56.07;98740.03;5181802;28;20072;-71
2022/05/29 02:37:56;;;;;;;7.82;2.22;;;;;;;13.37;56.77;98764.00;5168146;28;20131;-72
2022/05/29 02:41:16;;;;;;;6.57;2.53;;;;;;;13.50;57.50;98750.19;5182078;28;20412;-71
2022/05/29 02:44:25;;;;;;;3.42;1.95;;;;;;;13.36;56.62;98725.88;5182421;28;20057;-75
2022/05/29 02:47:35;;;;;;;12.27;3.58;;;;;;;13.45;58.04;98737.38;5182323;28;20065;-71
2022/05/29 02:50:52;;;;;;;9.75;2.42;;;;;;;13.59;57.60;98742.00;5182068;28;20057;-73
2022/05/29 02:53:44;;;;;;;9.73;2.97;;;;;;;13.18;59.12;98738.53;5181985;28;20046;-72
2022/05/29 02:56:34;;;;;;;11.23;2.65;;;;;;;13.29;58.06;98740.06;5182580;28;20500;-71
2022/05/29 02:59:29;;;;;;;7.45;2.35;;;;;;;13.23;60.11;98741.50;5166495;28;20104;-72
2022/05/29 03:02:50;;;;;;;13.30;3.20;;;;;;;13.04;61.74;98740.00;5181487;28;20053;-71
2022/05/29 03:05:59;;;;;;;7.90;2.83;;;;;;;13.11;60.10;98734.84;5168512;28;20053;-72
2022/05/29 03:09:12;;;;;;;5.35;2.20;;;;;;;12.95;58.11;98733.03;5182037;28;20200;-73
2022/05/29 03:12:12;;;;;;;4.93;2.63;;;;;;;12.92;59.18;98731.53;5181281;28;20127;-72
2022/05/29 03:15:24;;;;;;;8.75;2.58;;;;;;;12.98;59.36;98735.38;5183229;28;20088;-73
2022/05/29 03:18:33;;;;;;;6.53;3.10;;;;;;;13.01;59.97;98732.34;5184980;28;20522;-72
2022/05/29 03:21:28;;;;;;;5.50;2.63;;;;;;;13.02;62.25;98734.03;5170349;28;20558;-72
2022/05/29 03:24:28;;;;;;;4.97;2.40;;;;;;;12.93;60.94;98714.56;5185578;28;20061;-72
2022/05/29 03:27:37;;;;;;;5.38;2.75;;;;;;;12.83;59.36;98737.84;5169310;28;20471;-72
2022/05/29 03:30:31;;;;;;;3.97;2.28;;;;;;;12.81;60.37;98729.16;5185433;28;20080;-71
2022/05/29 03:33:21;;;;;;;4.47;3.00;;;;;;;12.90;61.47;98730.84;5185616;28;20046;-73
2022/05/29 03:36:17;;;;;;;8.32;2.95;;;;;;;12.82;61.12;98740.66;5185842;28;20069;-72
2022/05/29 03:39:07;;;;;;;7.50;2.60;;;;;;;13.06;59.98;98739.84;5185373;28;20196;-72
2022/05/29 03:41:57;;;;;;;6.32;2.30;;;;;;;12.66;57.45;98738.81;5185129;28;20288;-73
2022/05/29 03:44:47;;;;;;;6.00;2.08;;;;;;;12.66;57.68;98736.97;5185297;28;20073;-72
2022/05/29 03:47:38;;;;;;;7.68;2.30;;;;;;;12.75;58.74;98745.81;5177920;28;20065;-71
2022/05/29 03:50:28;;;;;;;10.18;2.47;;;;;;;12.79;56.99;98736.50;5185024;28;20160;-72
2022/05/29 03:53:18;;;;;;;6.05;2.20;;;;;;;12.75;56.71;98739.63;5185331;28;20044;-72
2022/05/29 03:56:08;;;;;;;7.38;2.85;;;;;;;12.71;59.43;98733.81;5185716;28;20527;-71
2022/05/29 03:58:59;;;;;;;5.45;2.40;;;;;;;12.86;60.54;98740.16;5182711;28;20079;-71
2022/05/29 04:01:49;;;;;;;5.35;2.60;;;;;;;12.89;60.32;98733.69;5184433;28;20125;-73
2022/05/29 04:04:39;;;;;;;6.93;2.13;;;;;;;12.79;59.21;98714.38;5184821;28;20053;-72
2022/05/29 04:13:51;;;;;;;6.78;2.47;;;;;;;12.66;60.60;98726.34;5172503;28;20058;-72
2022/05/29 04:16:41;;;;;;;5.70;2.00;;;;;;;12.59;57.18;98729.81;5184926;28;20570;-71
2022/05/29 04:19:32;;;;;;;3.72;2.20;;;;;;;12.68;57.50;98728.81;5184997;28;20046;-72
2022/05/29 04:22:23;;;;;;;9.15;1.88;;;;;;;12.49;56.29;98724.66;5184170;28;20468;-72
2022/05/29 04:25:13;;;;;;;5.03;2.03;;;;;;;12.68;57.27;98724.34;5184420;28;20081;-71
2022/05/29 04:28:04;;;;;;;6.30;2.53;;;;;;;12.59;56.88;98722.66;5181428;28;20100;-73
2022/05/29 04:30:53;;;;;;;5.03;1.77;;;;;;;12.42;58.18;98718.31;5184329;28;20076;-71
2022/05/29 04:33:44;;;;;;;10.30;2.58;;;;;;;12.57;59.62;98729.97;5170759;28;20045;-71
2022/05/29 04:36:34;;;;;;;10.27;2.38;;;;;;;12.45;56.82;98726.78;5184688;28;20057;-73
2022/05/29 04:39:25;;;;;;;6.03;2.35;;;;;;;12.56;57.93;98728.31;5184753;28;20107;-73
2022/05/29 04:42:15;;;;;;;5.25;2.03;;;;;;;12.52;57.31;98723.50;5183616;28;20184;-71
2022/05/29 04:45:06;;;;;;;5.47;2.83;;;;;;;12.45;57.95;98721.47;5182853;28;20546;-72
2022/05/29 04:47:56;;;;;;;6.13;2.03;;;;;;;12.54;58.20;98732.94;5183499;28;20045;-72
2022/05/29 04:50:46;;;;;;;6.60;2.35;;;;;;;12.74;59.63;98732.66;5183872;28;20060;-73
2022/05/29 04:53:37;;;;;;;8.65;2.40;;;;;;;12.74;60.98;98727.34;5168422;28;20096;-72
2022/05/29 04:56:28;;;;;;;5.78;2.58;;;;;;;12.86;59.96;98732.19;5182818;28;20052;-73
2022/05/29 04:59:17;;;;;;;5.05;2.60;;;;;;;12.89;59.48;98723.03;5182534;28;20539;-72
2022/05/29 05:02:08;;;;;;;7.43;2.13;;;;;;;12.92;57.46;98720.88;5183422;28;20048;-73
2022/05/29 05:04:58;;;;;;;6.30;2.20;;;;;;;12.94;58.86;98720.69;5182531;28;20069;-71
2022/05/29 05:07:49;;;;;;;7.45;2.28;;;;;;;13.13;59.58;98727.53;5183344;28;20420;-75
2022/05/29 05:10:40;;;;;;;4.63;2.38;;;;;;;13.34;58.50;98721.72;5183822;28;20050;-73
2022/05/29 05:13:31;;;;;;;7.40;2.30;;;;;;;13.37;59.14;98724.88;5183340;28;20125;-74
2022/05/29 05:16:21;;;;;;;6.57;2.15;;;;;;;13.45;58.40;98709.91;5183931;28;20056;-74
2022/05/29 05:19:12;;;;;;;7.10;2.10;;;;;;;13.60;56.70;98721.53;5183709;28;20054;-73
2022/05/29 05:22:05;;;;;;;7.32;1.90;;;;;;;13.35;55.81;98716.25;5183237;28;20419;-71
2022/05/29 05:24:54;;;;;;;7.55;2.53;;;;;;;13.55;57.52;98716.72;5183430;28;20050;-71
2022/05/29 05:27:44;;;;;;;7.25;2.58;;;;;;;13.45;56.58;98717.91;5183359;28;20570;-72
2022/05/29 05:30:35;;;;;;;6.25;2.45;;;;;;;13.67;57.81;98730.50;5182263;28;20180;-71
2022/05/29 05:33:25;;;;;;;11.30;2.58;;;;;;;13.69;56.08;98727.69;5183318;28;20048;-71
2022/05/29 05:36:15;;;;;;;5.85;1.92;;;;;;;13.75;55.59;98711.00;5183328;28;20164;-72
2022/05/29 05:39:05;;;;;;;7.05;1.90;;;;;;;14.19;55.11;98726.50;5183462;28;20060;-72
2022/05/29 05:41:55;;;;;;;4.10;1.88;;;;;;;13.86;55.18;98729.28;5182703;28;20049;-72
2022/05/29 05:44:46;;;;;;;6.63;1.83;;;;;;;13.71;55.14;98734.50;5182929;28;20057;-72
2022/05/29 05:47:37;;;;;;;6.38;1.95;;;;;;;13.23;53.71;98738.03;5175194;28;20061;-72
2022/05/29 05:50:31;;;;;;;8.77;1.90;;;;;;;13.18;54.34;98738.53;5183022;28;20954;-72
2022/05/29 05:53:22;;;;;;;3.67;1.80;;;;;;;13.76;54.81;98734.81;5183172;28;20072;-72
2022/05/29 05:56:16;;;;;;;5.65;2.00;;;;;;;13.58;54.33;98737.69;5172749;28;20057;-72
2022/05/29 05:59:06;;;;;;;9.50;1.75;;;;;;;13.49;54.34;98736.03;5181904;28;20076;-72
2022/05/29 06:01:58;;;;;;;6.78;2.00;;;;;;;13.66;54.01;98734.16;5178841;28;20088;-72
2022/05/29 06:04:48;;;;;;;8.57;1.98;;;;;;;13.74;55.89;98738.63;5179253;28;20535;-73
2022/05/29 06:07:39;;;;;;;5.32;2.10;;;;;;;13.88;56.09;98742.47;5181218;28;20045;-71
2022/05/29 06:10:30;;;;;;;5.40;1.98;;;;;;;13.56;56.19;98744.19;5177640;28;20516;-71
2022/05/29 06:13:20;;;;;;;4.63;1.90;;;;;;;14.07;54.35;98736.69;5180842;28;20492;-71
2022/05/29 06:16:12;;;;;;;6.15;1.85;;;;;;;14.15;55.61;98735.88;5175010;28;20135;-71
2022/05/29 06:19:04;;;;;;;8.02;1.75;;;;;;;13.24;56.52;98732.53;5180777;28;20053;-72
2022/05/29 06:21:55;;;;;;;6.97;2.30;;;;;;;13.14;56.41;98743.34;5177145;28;20054;-71
2022/05/29 06:24:46;;;;;;;11.02;2.20;;;;;;;13.95;55.93;98736.25;5179426;28;20192;-71
2022/05/29 06:27:43;;;;;;;8.82;1.90;;;;;;;14.13;53.95;98741.34;5179056;28;20046;-71
2022/05/29 06:30:33;;;;;;;12.10;2.20;;;;;;;14.81;53.78;98731.88;5180696;28;20060;-72
2022/05/29 06:33:26;;;;;;;11.20;2.00;;;;;;;15.18;55.05;98735.59;5182391;28;20799;-71
2022/05/29 06:36:19;;;;;;;11.70;2.67;;;;;;;15.29;52.16;98729.81;5181866;28;20504;-72
2022/05/29 06:39:09;;;;;;;6.65;2.10;;;;;;;15.05;50.99;98730.84;5182264;28;20147;-71
2022/05/29 06:41:59;;;;;;;6.70;1.80;;;;;;;14.90;51.16;98733.47;5179574;28;20057;-70
2022/05/29 06:44:49;;;;;;;7.00;1.85;;;;;;;14.95;51.45;98728.41;5178759;28;20425;-72
2022/05/29 06:47:39;;;;;;;5.75;1.48;;;;;;;15.02;50.05;98721.34;5179688;28;20101;-71
2022/05/29 06:50:30;;;;;;;7.97;1.73;;;;;;;15.12;50.30;98730.97;5171183;28;20064;-73
2022/05/29 06:53:20;;;;;;;10.20;1.90;;;;;;;15.34;50.51;98739.97;5181703;28;20046;-73
2022/05/29 06:56:10;;;;;;;8.23;1.55;;;;;;;15.71;51.35;98741.81;5176400;28;20546;-73
2022/05/29 06:59:01;;;;;;;7.03;1.80;;;;;;;15.88;52.39;98751.31;5175787;28;20072;-73
2022/05/29 07:08:09;;;;;;;7.15;2.00;;;;;;;13.09;58.15;98764.31;5173488;28;20448;-73
2022/05/29 07:11:05;;;;;;;6.32;1.77;;;;;;;13.86;55.68;98766.59;5181147;28;20046;-72
2022/05/29 07:13:55;;;;;;;6.70;2.35;;;;;;;13.97;56.64;98763.59;5181627;28;20053;-72
2022/05/29 07:16:45;;;;;;;7.80;2.65;;;;;;;14.64;54.76;98765.00;5182071;28;20152;-71
2022/05/29 07:19:35;;;;;;;6.43;2.10;;;;;;;14.37;54.29;98761.78;5181903;28;20093;-71
2022/05/29 07:22:27;;;;;;;4.18;1.80;;;;;;;14.70;54.34;98766.94;5181207;28;20053;-71
2022/05/29 07:25:17;;;;;;;6.07;2.10;;;;;;;13.84;56.19;98768.59;5181571;28;20058;-74
2022/05/29 07:28:08;;;;;;;8.38;2.50;;;;;;;14.12;55.35;98760.19;5181566;28;20060;-71
2022/05/29 07:30:58;;;;;;;6.65;1.80;;;;;;;14.93;54.16;98754.47;5180662;28;20069;-71
2022/05/29 07:33:50;;;;;;;6.82;2.97;;;;;;;15.54;52.76;98765.16;5181121;28;20060;-72
2022/05/29 07:36:40;;;;;;;6.65;1.90;;;;;;;16.19;51.33;98769.00;5179517;28;20049;-73
2022/05/29 07:39:38;;;;;;;8.85;2.20;;;;;;;15.96;51.93;98769.13;5173968;28;20056;-73
2022/05/29 07:45:38;;;;;;;7.57;2.30;;;;;;;16.12;49.05;98770.78;5178017;28;20053;-71
2022/05/29 07:48:28;;;;;;;9.48;2.30;;;;;;;15.89;49.67;98771.72;5178244;28;20062;-72
2022/05/29 07:51:19;;;;;;;8.95;2.05;;;;;;;16.69;48.93;98772.75;5174430;28;20050;-73
2022/05/29 07:54:09;;;;;;;9.10;3.30;;;;;;;17.29;50.07;98754.63;5180415;28;20057;-71
2022/05/29 07:56:59;;;;;;;8.27;2.30;;;;;;;17.65;47.31;98770.59;5180885;28;20508;-73
2022/05/29 07:59:49;;;;;;;12.32;2.00;;;;;;;17.21;47.17;98770.84;5180371;28;20191;-71
2022/05/29 08:02:40;;;;;;;8.25;2.22;;;;;;;17.31;46.90;98777.53;5183839;28;20518;-70
2022/05/29 08:05:34;;;;;;;8.57;2.00;;;;;;;16.51;50.08;98777.66;5179155;28;20124;-70
2022/05/29 08:08:26;;;;;;;7.80;1.95;;;;;;;17.51;47.75;98780.38;5182911;28;20073;-71
2022/05/29 08:11:17;;;;;;;10.45;2.10;;;;;;;19.20;44.08;98775.50;5183410;28;20198;-71
2022/05/29 08:14:08;;;;;;;12.73;2.28;;;;;;;19.57;44.08;98765.19;5181820;28;20053;-71
2022/05/29 08:16:59;;;;;;;7.93;1.83;;;;;;;19.77;41.20;98783.19;5177149;28;20611;-71
2022/05/29 08:19:51;;;;;;;6.03;1.73;;;;;;;18.54;44.20;98781.50;5181567;28;20691;-71
2022/05/29 08:22:42;;;;;;;10.05;2.33;;;;;;;20.08;40.89;98747.53;5182817;28;20099;-71
2022/05/29 08:31:51;;;;;;;7.15;1.85;;;;;;;19.08;42.46;98768.25;5172413;28;20108;-72
2022/05/29 08:34:43;;;;;;;7.38;1.60;;;;;;;18.17;43.30;98771.16;5184111;28;20057;-71
2022/05/29 08:37:34;;;;;;;8.18;2.33;;;;;;;17.42;45.51;98772.66;5184427;28;20515;-71
2022/05/29 08:40:26;;;;;;;10.07;2.58;;;;;;;16.30;47.19;98759.72;5181829;28;20184;-72
2022/05/29 08:43:31;;;;;;;5.30;2.03;;;;;;;15.74;48.58;98758.31;5181955;28;20808;-71
2022/05/29 08:46:30;;;;;;;8.65;1.83;;;;;;;17.05;45.00;98751.34;5177712;28;20060;-74
2022/05/29 08:49:26;;;;;;;15.93;2.08;;;;;;;15.94;46.53;98761.28;5180676;28;20085;-71
2022/05/29 08:52:53;;;;;;;7.82;1.73;;;;;;;16.28;48.59;98764.41;5182854;28;20058;-72
2022/05/29 08:55:52;;;;;;;12.63;2.35;;;;;;;15.92;48.48;98771.31;5179356;28;20129;-72
2022/05/29 08:58:55;;;;;;;8.57;1.85;;;;;;;16.05;47.12;98772.53;5181334;28;20046;-73
2022/05/29 09:02:04;;;;;;;8.85;1.90;;;;;;;14.96;48.73;98767.44;5180635;28;20087;-70
2022/05/29 09:05:01;;;;;;;10.65;2.17;;;;;;;15.96;46.68;98772.63;5179417;28;20076;-70
2022/05/29 09:07:55;;;;;;;8.68;2.00;;;;;;;16.06;48.01;98768.81;5178997;28;20050;-72
2022/05/29 09:10:50;;;;;;;8.80;1.75;;;;;;;16.12;45.39;98765.41;5180008;28;20061;-72
2022/05/29 09:13:47;;;;;;;10.25;1.88;;;;;;;15.66;47.06;98757.53;5170005;28;20072;-71
2022/05/29 09:16:45;;;;;;;6.40;1.60;;;;;;;16.00;47.19;98735.66;5183333;28;20531;-70
2022/05/29 09:19:47;;;;;;;6.97;1.90;;;;;;;16.40;46.35;98763.75;5182644;28;20053;-71
2022/05/29 09:22:40;;;;;;;9.77;1.75;;;;;;;15.94;47.87;98750.59;5181999;28;20057;-72
2022/05/29 09:25:42;;;;;;;5.40;1.45;;;;;;;16.16;46.96;98764.88;5169690;28;20551;-72
2022/05/29 09:28:38;;;;;;;7.32;1.80;;;;;;;15.88;47.63;98759.34;5182088;28;20127;-72
2022/05/29 09:31:31;;;;;;;5.32;1.48;;;;;;;16.22;47.38;98757.94;5168271;28;20076;-72
2022/05/29 09:34:21;;;;;;;5.28;1.77;;;;;;;16.01;47.27;98761.38;5182352;28;20046;-72
2022/05/29 09:37:29;;;;;;;8.02;1.83;;;;;;;15.97;48.05;98744.88;5182677;28;20057;-72
2022/05/29 09:40:32;;;;;;;8.88;1.50;;;;;;;15.50;48.43;98755.84;5182555;28;20104;-72
2022/05/29 09:43:24;;;;;;;7.20;1.70;;;;;;;15.70;49.63;98762.38;5167798;28;20056;-72
2022/05/29 09:46:21;;;;;;;8.95;1.90;;;;;;;16.27;47.05;98763.59;5182642;28;20151;-72
2022/05/29 09:49:42;;;;;;;7.35;1.70;;;;;;;15.20;49.33;98760.28;5182503;28;20061;-72
2022/05/29 09:52:41;;;;;;;6.13;1.52;;;;;;;14.95;52.53;98765.78;5176038;28;20065;-72
2022/05/29 09:55:34;;;;;;;6.00;1.63;;;;;;;16.57;49.36;98768.91;5168485;28;20080;-72
2022/05/29 09:58:29;;;;;;;7.10;1.60;;;;;;;16.13;50.83;98764.44;5168003;28;20054;-72
2022/05/29 10:01:34;;;;;;;4.65;1.65;;;;;;;16.48;50.63;98768.16;5181941;28;20496;-72
2022/05/29 10:04:35;;;;;;;6.07;1.70;;;;;;;16.85;46.75;98766.34;5182491;28;20112;-72
2022/05/29 10:07:41;;;;;;;5.25;1.50;;;;;;;15.67;49.22;98764.59;5166845;28;20519;-72
2022/05/29 10:10:34;;;;;;;6.05;1.48;;;;;;;16.53;48.80;98763.09;5182120;28;20546;-72
2022/05/29 10:13:39;;;;;;;8.27;1.90;;;;;;;16.15;47.66;98762.38;5181888;28;20116;-73
2022/05/29 10:16:37;;;;;;;6.97;1.40;;;;;;;15.18;50.01;98767.63;5181326;28;20092;-72
2022/05/29 10:19:37;;;;;;;7.35;1.30;;;;;;;15.32;49.09;98768.69;5166798;28;20087;-73
2022/05/29 10:22:37;;;;;;;6.18;1.40;;;;;;;15.92;50.25;98763.28;5180977;28;20060;-73
2022/05/29 10:25:37;;;;;;;6.13;1.50;;;;;;;16.60;48.43;98766.66;5166960;28;20050;-73
2022/05/29 10:28:35;;;;;;;8.88;1.70;;;;;;;17.35;47.60;98759.19;5182142;28;20057;-73
2022/05/29 10:31:34;;;;;;;9.25;2.47;;;;;;;17.46;46.45;98744.47;5181609;28;20045;-72
2022/05/29 10:34:30;;;;;;;8.77;1.48;;;;;;;16.90;46.76;98761.25;5181744;28;20100;-73
2022/05/29 10:37:37;;;;;;;6.28;1.52;;;;;;;16.17;47.75;98745.13;5181766;28;20065;-73
2022/05/29 10:40:31;;;;;;;6.03;1.45;;;;;;;15.28;51.04;98770.91;5182035;28;20531;-72
2022/05/29 10:43:37;;;;;;;;;;;;;;;15.14;50.57;98769.00;5182346;28;20074;-72
2022/05/29 10:46:44;;;;;;;8.20;1.85;;;;;;;15.94;51.81;98760.44;5180747;28;19929;-72
2022/05/29 10:49:42;;;;;;;5.85;1.25;;;;;;;16.01;46.80;98768.56;5181122;28;20417;-72
2022/05/29 10:53:31;;;;;;;7.93;2.30;;;;;;;15.77;47.36;98764.31;5181639;28;20411;-74
2022/05/29 10:56:38;;;;;;;5.22;1.30;;;;;;;16.62;45.79;98763.78;5171476;28;20119;-73
2022/05/29 10:59:44;;;;;;;8.48;1.50;;;;;;;16.31;47.70;98764.88;5182207;28;20057;-74
2022/05/29 11:05:45;;;;;;;9.55;2.15;;;;;;;15.58;48.17;98771.81;5167582;28;20057;-73
2022/05/29 11:08:43;;;;;;;4.35;1.48;;;;;;;15.52;47.60;98769.84;5182080;28;20575;-73
2022/05/29 11:11:42;;;;;;;4.93;1.38;;;;;;;16.16;47.09;98772.09;5181440;28;20056;-73
2022/05/29 11:14:54;;;;;;;6.72;1.50;;;;;;;15.58;47.18;98768.31;5181691;28;20409;-73
2022/05/29 11:17:47;;;;;;;8.32;1.30;;;;;;;16.25;46.97;98764.78;5181308;28;20046;-73
2022/05/29 11:20:41;;;;;;;6.28;1.15;;;;;;;15.81;46.50;98762.94;5181587;28;20058;-73
2022/05/29 11:24:06;;;;;;;3.88;1.27;;;;;;;15.89;46.24;98761.00;5180920;28;20117;-73
2022/05/29 11:27:04;;;;;;;4.38;1.30;;;;;;;14.86;44.94;98764.19;5181702;28;20076;-73
2022/05/29 11:30:10;;;;;;;6.57;1.48;;;;;;;15.25;45.37;98763.25;5181145;28;20631;-72
2022/05/29 11:33:22;;;;;;;4.28;1.05;;;;;;;14.54;46.54;98758.03;5182749;28;20053;-73
2022/05/29 11:36:21;;;;;;;4.43;1.67;;;;;;;15.11;47.58;98762.19;5174470;28;20115;-72
2022/05/29 11:39:23;;;;;;;6.50;1.65;;;;;;;15.19;45.54;98755.94;5186890;28;20072;-72
2022/05/29 11:42:20;;;;;;;1.60;0.90;;;;;;;14.90;47.93;98757.50;5185842;28;20500;-72
2022/05/29 11:45:16;;;;;;;2.60;1.10;;;;;;;14.76;48.36;98758.25;5185485;28;20068;-72
2022/05/29 11:51:25;;;;;;;6.47;1.20;;;;;;;15.48;47.21;98748.00;5184002;28;20199;-72
2022/05/29 11:55:03;;;;;;;3.72;1.20;;;;;;;14.86;45.10;98747.34;5185404;28;20049;-72
2022/05/29 11:57:57;;;;;;;4.57;1.40;;;;;;;15.16;49.85;98725.06;5185262;28;20420;-72
2022/05/29 12:00:57;;;;;;;4.78;1.20;;;;;;;15.74;45.65;98738.78;5185194;28;20195;-72
2022/05/29 12:03:59;;;;;;;3.92;1.42;;;;;;;16.21;44.49;98732.22;5184685;28;20068;-72
2022/05/29 12:07:27;;;;;;;6.07;1.40;;;;;;;16.58;44.53;98722.38;5183985;28;20057;-72
2022/05/29 12:10:22;;;;;;;7.13;1.38;;;;;;;16.44;44.37;98730.25;5166438;28;20065;-72
2022/05/29 12:13:16;;;;;;;4.65;0.90;;;;;;;17.28;41.51;98713.59;5178771;28;20046;-72
2022/05/29 12:16:12;;;;;;;5.00;1.20;;;;;;;17.42;41.48;98719.06;5170066;28;20100;-72
2022/05/29 12:19:10;;;;;;;4.93;0.82;;;;;;;17.92;38.87;98718.00;5185334;28;20065;-72
2022/05/29 12:22:07;;;;;;;2.75;0.82;;;;;;;17.96;36.99;98719.25;5184174;28;20543;-72
2022/05/29 12:24:58;;;;;;;3.13;0.80;;;;;;;18.16;37.96;98711.31;5185067;28;20086;-74
2022/05/29 12:27:51;;;;;;;4.13;0.85;;;;;;;17.68;37.39;98707.69;5184119;28;20054;-72
2022/05/29 12:30:44;;;;;;;2.10;0.32;;;;;;;18.18;34.10;98711.94;5184627;28;20050;-72
2022/05/29 12:33:35;;;;;;;1.58;0.57;;;;;;;17.76;35.71;98711.09;5183441;28;20061;-72
2022/05/29 12:36:44;;;;;;;1.23;0.60;;;;;;;18.28;38.34;98701.66;5184606;28;20058;-72
2022/05/29 12:39:57;;;;;;;0.70;0.50;;;;;;;18.56;39.32;98695.34;5185152;28;20555;-74
2022/05/29 12:43:07;;;;;;;1.25;0.57;;;;;;;18.53;37.83;98696.56;5173491;28;20060;-73
2022/05/29 12:46:23;;;;;;;2.05;0.68;;;;;;;18.51;37.85;98697.84;5183266;28;20050;-73
2022/05/29 12:49:35;;;;;;;1.15;0.55;;;;;;;18.44;37.81;98697.81;5183246;28;20060;-73
2022/05/29 12:52:46;;;;;;;1.42;0.52;;;;;;;18.62;36.86;98696.41;5168338;28;20053;-73
2022/05/29 12:56:14;;;;;;;1.33;0.50;;;;;;;18.25;36.48;98703.94;5182622;28;20124;-73
2022/05/29 12:59:44;;;;;;;2.78;0.98;;;;;;;18.09;43.49;98705.09;5173582;28;20516;-73
2022/05/29 13:03:27;;;;;;;3.90;1.50;;;;;;;17.27;48.11;98703.91;5173655;28;20057;-72
2022/05/29 13:06:37;;;;;;;3.72;1.30;;;;;;;16.79;46.32;98703.69;5182162;28;20161;-73
2022/05/29 13:09:47;;;;;;;3.88;1.33;;;;;;;16.28;45.86;98705.56;5183825;28;20054;-73
2022/05/29 13:12:47;;;;;;;3.65;1.20;;;;;;;16.57;46.78;98697.44;5183450;28;20056;-73
2022/05/29 13:15:37;;;;;;;5.63;1.55;;;;;;;16.73;49.08;98680.31;5183890;28;20698;-73
2022/05/29 13:21:28;;;;;;;5.28;1.27;;;;;;;16.84;46.29;98685.19;5183003;28;20144;-73
2022/05/29 13:24:19;;;;;;;6.22;1.40;;;;;;;17.10;44.94;98691.81;5182421;28;20045;-72
2022/05/29 13:27:09;;;;;;;3.58;1.10;;;;;;;17.26;44.34;98685.34;5183629;28;20050;-73
2022/05/29 13:30:04;;;;;;;5.95;1.40;;;;;;;17.68;42.80;98683.56;5183510;28;20076;-73
2022/05/29 13:33:29;;;;;;;3.72;0.90;;;;;;;17.30;39.72;98682.09;5172301;28;20053;-73
2022/05/29 13:36:39;;;;;;;2.95;1.40;;;;;;;17.66;41.30;98681.09;5182308;28;20212;-72
2022/05/29 13:39:35;;;;;;;4.00;1.20;;;;;;;17.78;40.96;98678.69;5183412;28;20061;-72
2022/05/29 13:42:30;;;;;;;3.00;1.10;;;;;;;17.54;39.53;98680.81;5181806;28;20069;-72
2022/05/29 13:45:23;;;;;;;3.35;0.98;;;;;;;17.45;39.79;98673.09;5183316;28;20413;-73
2022/05/29 13:48:29;;;;;;;2.22;0.95;;;;;;;17.48;40.87;98670.88;5183141;28;20432;-74
2022/05/29 13:51:29;;;;;;;3.85;1.33;;;;;;;17.47;42.27;98668.38;5174032;28;20065;-73
2022/05/29 13:54:28;;;;;;;2.40;1.17;;;;;;;17.51;40.34;98648.19;5182993;28;20056;-73
2022/05/29 14:03:58;;;;;;;4.63;1.08;;;;;;;17.62;40.74;98666.44;5183871;28;20057;-73
2022/05/29 14:04:03;;;;;;;3.65;1.10;;;;;;;17.20;40.29;98667.38;5181544;28;20056;-73
2022/05/29 14:07:34;;;;;;;3.08;0.93;;;;;;;17.56;40.91;98678.75;5183197;28;20458;-72
2022/05/29 14:10:29;;;;;;;3.50;1.23;;;;;;;16.15;41.14;98679.47;5177130;28;20049;-73
2022/05/29 14:13:28;;;;;;;4.13;1.40;;;;;;;15.51;43.62;98688.84;5167597;28;20073;-72
2022/05/29 14:16:24;;;;;;;5.03;1.55;;;;;;;14.66;44.42;98682.91;5182687;28;20396;-72
2022/05/29 14:19:36;;;;;;;6.45;1.33;;;;;;;15.39;43.22;98679.63;5182369;28;20050;-74
2022/05/29 14:22:46;;;;;;;7.97;1.48;;;;;;;16.15;41.83;98677.59;5182143;28;20116;-73
2022/05/29 14:26:01;;;;;;;5.68;1.20;;;;;;;16.05;41.84;98679.75;5182758;28;20155;-72
2022/05/29 14:29:03;;;;;;;7.45;1.55;;;;;;;16.41;40.46;98673.59;5177194;28;20052;-73
2022/05/29 14:32:03;;;;;;;8.57;1.63;;;;;;;16.76;39.96;98673.78;5182267;28;20515;-73